Time;durP1;ratioP1;P1;durP2;ratioP2;P2;SDS_P1;SDS_P2;PMS_P1;PMS_P2;Temp;Humidity;BMP_temperature;BMP_pressure;BME280_temperature;BME280_humidity;BME280_pressure;Samples;Min_cycle;Max_cycle;Signal;HPM_P1;HPM_P2
2023/12/04 00:02:23;;;;;;;1999.90;999.90;;;;;;;-8.47;100.00;95054.59;5008057;28;20232;-65
2023/12/04 00:04:49;;;;;;;1999.90;999.90;;;;;;;-8.46;100.00;95056.16;5008079;28;20191;-65
2023/12/04 00:07:14;;;;;;;1999.90;999.90;;;;;;;-8.42;100.00;95054.53;5008535;28;20225;-65
2023/12/04 00:09:39;;;;;;;1999.90;999.90;;;;;;;-8.38;100.00;95052.88;5008421;28;20195;-65
2023/12/04 00:12:05;;;;;;;1999.90;999.90;;;;;;;-8.35;100.00;95057.56;5008466;28;20222;-64
2023/12/04 00:14:30;;;;;;;1999.90;999.90;;;;;;;-8.28;100.00;95052.66;5008249;28;20187;-65
2023/12/04 00:16:55;;;;;;;1999.90;999.90;;;;;;;-8.25;100.00;95049.44;5008380;28;20177;-65
2023/12/04 00:19:21;;;;;;;1999.90;999.90;;;;;;;-8.30;100.00;95050.31;5008092;28;20191;-65
2023/12/04 00:21:46;;;;;;;1999.90;999.90;;;;;;;-8.33;100.00;95050.91;5007995;28;20249;-64
2023/12/04 00:24:12;;;;;;;1999.90;999.90;;;;;;;-8.33;100.00;95050.91;5007939;28;20196;-64
2023/12/04 00:26:37;;;;;;;1999.90;999.90;;;;;;;-8.34;100.00;95053.84;5007836;28;20220;-64
2023/12/04 00:29:03;;;;;;;1999.90;999.90;;;;;;;-8.34;100.00;95048.56;5007681;28;20195;-64
2023/12/04 00:31:28;;;;;;;1999.90;999.90;;;;;;;-8.35;100.00;95047.75;5007696;28;20194;-64
2023/12/04 00:33:53;;;;;;;1999.90;999.90;;;;;;;-8.35;100.00;95036.38;5007854;28;20195;-64
2023/12/04 00:36:19;;;;;;;1999.90;999.90;;;;;;;-8.30;100.00;95038.94;5007625;28;20198;-65
2023/12/04 00:38:45;;;;;;;1999.90;999.90;;;;;;;-8.35;100.00;95047.75;5008072;28;20202;-65
2023/12/04 00:41:11;;;;;;;1999.90;999.90;;;;;;;-8.25;100.00;95044.13;5008017;28;20214;-65
2023/12/04 00:43:37;;;;;;;1999.90;999.90;;;;;;;-8.20;100.00;95044.03;5007701;28;20187;-65
2023/12/04 00:46:02;;;;;;;1999.90;999.90;;;;;;;-8.24;100.00;95048.34;5007727;28;20195;-66
2023/12/04 00:48:28;;;;;;;1999.90;999.90;;;;;;;-8.26;100.00;95050.50;5007491;28;20179;-65
2023/12/04 00:50:54;;;;;;;1999.90;999.90;;;;;;;-8.24;100.00;95049.13;5007649;28;20199;-65
2023/12/04 00:53:19;;;;;;;1999.90;999.90;;;;;;;-8.23;100.00;95052.56;5007414;28;20193;-65
2023/12/04 00:55:45;;;;;;;1999.90;999.90;;;;;;;-8.23;100.00;95045.41;5007350;28;20206;-64
2023/12/04 00:58:10;;;;;;;1999.90;999.90;;;;;;;-8.22;100.00;95048.84;5007722;28;20193;-64
2023/12/04 01:00:35;;;;;;;1999.90;999.90;;;;;;;-8.25;100.00;95047.56;5007244;28;20283;-65
2023/12/04 01:03:01;;;;;;;1999.90;999.90;;;;;;;-8.24;100.00;95053.63;5007450;28;20245;-64
2023/12/04 01:05:26;;;;;;;1999.90;999.90;;;;;;;-8.24;100.00;95051.78;5007340;28;20203;-64
2023/12/04 01:07:52;;;;;;;1999.90;999.90;;;;;;;-8.24;100.00;95048.34;5007404;28;20270;-64
2023/12/04 01:10:17;;;;;;;1999.90;999.90;;;;;;;-8.22;100.00;95040.91;5007226;28;20218;-64
2023/12/04 01:12:43;;;;;;;1999.90;999.90;;;;;;;-8.24;100.00;95043.03;5007347;28;20197;-64
2023/12/04 01:15:09;;;;;;;1999.90;999.90;;;;;;;-8.27;100.00;95041.00;5007381;28;20250;-64
2023/12/04 01:17:35;;;;;;;1999.90;999.90;;;;;;;-8.31;100.00;95037.38;5007306;28;20191;-65
2023/12/04 01:20:00;;;;;;;1999.90;999.90;;;;;;;-8.34;100.00;95048.56;5007512;28;20208;-64
2023/12/04 01:22:26;;;;;;;1999.90;999.90;;;;;;;-8.35;100.00;95053.06;5007580;28;20256;-65
2023/12/04 01:24:51;;;;;;;1999.90;999.90;;;;;;;-8.37;100.00;95059.72;5007211;28;20190;-64
2023/12/04 01:27:16;;;;;;;1999.90;999.90;;;;;;;-8.39;100.00;95061.88;5006927;28;20198;-65
2023/12/04 01:29:42;;;;;;;1999.90;999.90;;;;;;;-8.38;100.00;95052.88;5007326;28;20192;-65
2023/12/04 01:32:07;;;;;;;1999.90;999.90;;;;;;;-8.35;100.00;95057.56;5007351;28;20204;-65
2023/12/04 01:34:32;;;;;;;1999.90;999.90;;;;;;;-8.38;100.00;95053.63;5010246;28;20199;-67
2023/12/04 01:36:58;;;;;;;1999.90;999.90;;;;;;;-8.45;100.00;95052.47;5010855;28;20191;-65
2023/12/04 01:39:23;;;;;;;1999.90;999.90;;;;;;;-8.48;100.00;95053.06;5010827;28;20226;-64
2023/12/04 01:41:48;;;;;;;1999.90;999.90;;;;;;;-8.50;100.00;95066.56;5011217;28;20207;-62
2023/12/04 01:44:14;;;;;;;1999.90;999.90;;;;;;;-8.48;100.00;95048.56;5011080;28;20190;-63
2023/12/04 01:46:39;;;;;;;1999.90;999.90;;;;;;;-8.40;100.00;95055.00;5010623;28;20195;-63
2023/12/04 01:49:05;;;;;;;1999.90;999.90;;;;;;;-8.47;100.00;95038.75;5010544;28;20237;-64
2023/12/04 01:51:31;;;;;;;1999.90;999.90;;;;;;;-8.49;100.00;95048.84;5027467;28;20223;-64
2023/12/04 01:54:00;;;;;;;1999.90;999.90;;;;;;;-8.51;100.00;95053.63;5011172;28;20201;-63
2023/12/04 01:56:25;;;;;;;1999.90;999.90;;;;;;;-8.49;100.00;95040.91;5011270;28;20199;-61
2023/12/04 01:58:51;;;;;;;1999.90;999.90;;;;;;;-8.46;100.00;95040.28;5010712;28;20298;-62
2023/12/04 02:01:18;;;;;;;1999.90;999.90;;;;;;;-8.47;100.00;95039.53;5010619;28;20217;-62
2023/12/04 02:03:43;;;;;;;1999.90;999.90;;;;;;;-8.45;100.00;95034.72;5010759;28;20198;-62
2023/12/04 02:06:09;;;;;;;1999.90;999.90;;;;;;;-8.41;100.00;95037.56;5010440;28;20493;-62
2023/12/04 02:08:35;;;;;;;1999.90;999.90;;;;;;;-8.38;100.00;95026.41;5010375;28;20416;-63
2023/12/04 02:11:00;;;;;;;1999.90;999.90;;;;;;;-8.34;100.00;95027.38;5010253;28;20195;-60
2023/12/04 02:13:26;;;;;;;1999.90;999.90;;;;;;;-8.33;100.00;95023.66;5010838;28;20199;-60
2023/12/04 02:15:54;;;;;;;1999.90;999.90;;;;;;;-8.33;100.00;95007.78;5010460;28;20216;-63
2023/12/04 02:18:20;;;;;;;1999.90;999.90;;;;;;;-8.34;100.00;94999.03;5010450;28;20203;-64
2023/12/04 02:20:45;;;;;;;1999.90;999.90;;;;;;;-8.34;100.00;94995.63;5010091;28;20184;-64
2023/12/04 02:23:11;;;;;;;1999.90;999.90;;;;;;;-8.35;100.00;94991.41;5010531;28;20248;-64
2023/12/04 02:25:36;;;;;;;1999.90;999.90;;;;;;;-8.37;100.00;94997.00;5010926;28;20195;-64
2023/12/04 02:28:05;;;;;;;1999.90;999.90;;;;;;;-8.37;100.00;94991.72;5010003;28;20192;-64
2023/12/04 02:30:35;;;;;;;1999.90;999.90;;;;;;;-8.39;100.00;95004.44;5026193;28;20224;-64
2023/12/04 02:33:01;;;;;;;1999.90;999.90;;;;;;;-8.41;100.00;95006.59;5010114;28;20226;-64
2023/12/04 02:35:31;;;;;;;1999.90;999.90;;;;;;;-8.42;100.00;95009.56;5009943;28;20187;-63
2023/12/04 02:37:58;;;;;;;1999.90;999.90;;;;;;;-8.40;100.00;95002.09;5026362;28;20195;-64
2023/12/04 02:40:24;;;;;;;1999.90;999.90;;;;;;;-8.40;100.00;95007.38;5010047;28;20187;-64
2023/12/04 02:42:49;;;;;;;1999.90;999.90;;;;;;;-8.43;100.00;95005.31;5009797;28;20207;-65
2023/12/04 02:45:14;;;;;;;1999.90;999.90;;;;;;;-8.45;100.00;95005.59;5009344;28;20198;-65
2023/12/04 02:47:40;;;;;;;1999.90;999.90;;;;;;;-8.45;100.00;95010.13;5009370;28;20204;-66
2023/12/04 02:50:06;;;;;;;1999.90;999.90;;;;;;;-8.49;100.00;95009.16;5010298;28;20195;-66
2023/12/04 02:52:31;;;;;;;1999.90;999.90;;;;;;;-8.54;100.00;95011.88;5009534;28;20187;-66
2023/12/04 02:54:56;;;;;;;1999.90;999.90;;;;;;;-8.59;100.00;95014.63;5009793;28;20187;-66
2023/12/04 02:57:22;;;;;;;1999.90;999.90;;;;;;;-8.62;100.00;95015.22;5009578;28;20229;-64
2023/12/04 02:59:47;;;;;;;1999.90;999.90;;;;;;;-8.65;100.00;95013.16;5009494;28;20195;-64
2023/12/04 03:02:13;;;;;;;1999.90;999.90;;;;;;;-8.69;100.00;95014.81;5009369;28;20274;-63
2023/12/04 03:04:38;;;;;;;1999.90;999.90;;;;;;;-8.72;100.00;95015.38;5009305;28;20301;-64
2023/12/04 03:07:03;;;;;;;1999.90;999.90;;;;;;;-8.70;100.00;95005.31;5009168;28;20199;-66
2023/12/04 03:09:29;;;;;;;1999.90;999.90;;;;;;;-8.74;100.00;95001.69;5009412;28;20191;-65
2023/12/04 03:11:54;;;;;;;1999.90;999.90;;;;;;;-8.83;100.00;94998.94;5009489;28;20419;-66
2023/12/04 03:14:19;;;;;;;1999.90;999.90;;;;;;;-8.92;100.00;94998.06;5009342;28;20286;-66
2023/12/04 03:16:45;;;;;;;1999.90;999.90;;;;;;;-8.94;100.00;94988.81;5009159;28;20214;-65
2023/12/04 03:19:10;;;;;;;1999.90;999.90;;;;;;;-8.96;100.00;94993.63;5009469;28;20191;-65
2023/12/04 03:21:35;;;;;;;1999.90;999.90;;;;;;;-8.99;100.00;94978.34;5009516;28;20199;-66
2023/12/04 03:24:01;;;;;;;1999.90;999.90;;;;;;;-9.05;100.00;94984.78;5009414;28;20199;-65
2023/12/04 03:26:26;;;;;;;1999.90;999.90;;;;;;;-9.02;100.00;94984.19;5009470;28;20224;-65
2023/12/04 03:28:51;;;;;;;1999.90;999.90;;;;;;;-9.01;100.00;94991.06;5008804;28;20383;-65
2023/12/04 03:31:17;;;;;;;1999.90;999.90;;;;;;;-9.03;100.00;94988.69;5008866;28;20195;-63
2023/12/04 03:33:42;;;;;;;1999.90;999.90;;;;;;;-9.07;100.00;94992.22;5008718;28;20266;-63
2023/12/04 03:36:08;;;;;;;1999.90;999.90;;;;;;;-9.10;100.00;94987.53;5008982;28;20195;-63
2023/12/04 03:38:33;;;;;;;1999.90;999.90;;;;;;;-9.16;100.00;94988.66;5008708;28;20228;-65
2023/12/04 03:40:58;;;;;;;1999.90;999.90;;;;;;;-9.15;100.00;94987.63;5008672;28;20240;-65
2023/12/04 03:43:24;;;;;;;1999.90;999.90;;;;;;;-9.16;100.00;94993.97;5009007;28;20215;-64
2023/12/04 03:45:49;;;;;;;1999.90;999.90;;;;;;;-9.17;100.00;94990.56;5008555;28;20191;-64
2023/12/04 03:48:14;;;;;;;1999.90;999.90;;;;;;;-9.18;100.00;94990.84;5008486;28;20263;-64
2023/12/04 03:50:40;;;;;;;1999.90;999.90;;;;;;;-9.18;100.00;94994.25;5008339;28;20218;-66
2023/12/04 03:53:05;;;;;;;1999.90;999.90;;;;;;;-9.18;100.00;95002.16;5008956;28;20194;-65
2023/12/04 03:55:31;;;;;;;1999.90;999.90;;;;;;;-9.16;100.00;94999.25;5008454;28;20496;-65
2023/12/04 03:57:56;;;;;;;1999.90;999.90;;;;;;;-9.15;100.00;94988.38;5007948;28;20191;-65
2023/12/04 04:00:22;;;;;;;1999.90;999.90;;;;;;;-9.19;100.00;94983.97;5008177;28;20203;-64
2023/12/04 04:02:48;;;;;;;1999.90;999.90;;;;;;;-9.24;100.00;94982.22;5008377;28;20287;-65
2023/12/04 04:05:14;;;;;;;1999.90;999.90;;;;;;;-9.26;100.00;94983.56;5008126;28;20400;-64
2023/12/04 04:07:40;;;;;;;1999.90;999.90;;;;;;;-9.32;100.00;94984.72;5008263;28;20195;-64
2023/12/04 04:10:06;;;;;;;1999.90;999.90;;;;;;;-9.36;100.00;94994.31;5008576;28;20266;-65
2023/12/04 04:12:32;;;;;;;1999.90;999.90;;;;;;;-9.43;100.00;94993.88;5008111;28;20195;-65
2023/12/04 04:14:57;;;;;;;1999.90;999.90;;;;;;;-9.47;100.00;94985.75;5008404;28;20245;-64
2023/12/04 04:17:25;;;;;;;1999.90;999.90;;;;;;;-9.51;100.00;94989.25;5008288;28;20202;-63
2023/12/04 04:19:51;;;;;;;1999.90;999.90;;;;;;;-9.55;100.00;94980.34;5008033;28;20195;-65
2023/12/04 04:22:16;;;;;;;1999.90;999.90;;;;;;;-9.57;100.00;94983.28;5008110;28;20373;-65
2023/12/04 04:24:42;;;;;;;1999.90;999.90;;;;;;;-9.56;100.00;94973.47;5008329;28;20423;-62
2023/12/04 04:27:07;;;;;;;1999.90;999.90;;;;;;;-9.59;100.00;94974.84;5007828;28;20202;-62
2023/12/04 04:29:32;;;;;;;1999.90;999.90;;;;;;;-9.58;100.00;94971.13;5008306;28;20202;-65
2023/12/04 04:31:57;;;;;;;1999.90;999.90;;;;;;;-9.61;100.00;94974.38;5007741;28;20227;-66
2023/12/04 04:34:23;;;;;;;1999.90;999.90;;;;;;;-9.68;100.00;94970.50;5007796;28;20201;-66
2023/12/04 04:36:48;;;;;;;1999.90;999.90;;;;;;;-9.74;100.00;94983.00;5007572;28;20202;-66
2023/12/04 04:39:14;;;;;;;1999.90;999.90;;;;;;;-9.78;100.00;94981.22;5007828;28;20274;-65
2023/12/04 04:41:39;;;;;;;1999.90;999.90;;;;;;;-9.78;100.00;94997.06;5007670;28;20207;-65
2023/12/04 04:44:05;;;;;;;1999.90;999.90;;;;;;;-9.73;100.00;94999.63;5024760;28;20210;-65
2023/12/04 04:46:30;;;;;;;1999.90;999.90;;;;;;;-9.70;100.00;94991.16;5007553;28;20218;-66
2023/12/04 04:48:56;;;;;;;1999.90;999.90;;;;;;;-9.67;100.00;94972.06;5007886;28;20195;-67
2023/12/04 04:51:22;;;;;;;1999.90;999.90;;;;;;;-9.63;100.00;94973.06;5008180;28;20195;-67
2023/12/04 04:53:48;;;;;;;1999.90;999.90;;;;;;;-9.64;100.00;94984.69;5007368;28;20255;-66
2023/12/04 04:56:13;;;;;;;1999.90;999.90;;;;;;;-9.64;100.00;94979.41;5007724;28;20267;-66
2023/12/04 04:58:39;;;;;;;1999.90;999.90;;;;;;;-9.62;100.00;94972.78;5007489;28;20199;-67
2023/12/04 05:01:04;;;;;;;1999.90;999.90;;;;;;;-9.59;100.00;94971.44;5007736;28;20198;-66
2023/12/04 05:03:30;;;;;;;1999.90;999.90;;;;;;;-9.56;100.00;94962.91;5007515;28;20207;-66
2023/12/04 05:05:55;;;;;;;1999.90;999.90;;;;;;;-9.55;100.00;94953.94;5007153;28;20437;-67
2023/12/04 05:08:21;;;;;;;1999.90;999.90;;;;;;;-9.59;100.00;94955.59;5010225;28;20223;-64
2023/12/04 05:10:47;;;;;;;1999.90;999.90;;;;;;;-9.62;100.00;94942.97;5011447;28;20203;-65
2023/12/04 05:13:12;;;;;;;1999.90;999.90;;;;;;;-9.62;100.00;94937.69;5011374;28;20313;-63
2023/12/04 05:15:37;;;;;;;1999.90;999.90;;;;;;;-9.71;100.00;94949.94;5011669;28;20249;-65
2023/12/04 05:18:03;;;;;;;1999.90;999.90;;;;;;;-9.73;100.00;94944.97;5011343;28;20570;-65
2023/12/04 05:20:28;;;;;;;1999.90;999.90;;;;;;;-9.67;100.00;94951.75;5011447;28;20218;-65
2023/12/04 05:22:53;;;;;;;1999.90;999.90;;;;;;;-9.77;100.00;94946.59;5010973;28;20286;-66
2023/12/04 05:25:19;;;;;;;1999.90;999.90;;;;;;;-9.77;100.00;94945.84;5011064;28;20206;-67
2023/12/04 05:27:45;;;;;;;1999.90;999.90;;;;;;;-9.75;100.00;94947.13;5011377;28;20245;-65
2023/12/04 05:30:11;;;;;;;1999.90;999.90;;;;;;;-9.73;100.00;94952.13;5011462;28;20245;-66
2023/12/04 05:32:36;;;;;;;1999.90;999.90;;;;;;;-9.69;100.00;94953.09;5011048;28;20234;-66
2023/12/04 05:35:02;;;;;;;1999.90;999.90;;;;;;;-9.66;100.00;94949.91;5010988;28;20245;-67
2023/12/04 05:37:27;;;;;;;1999.90;999.90;;;;;;;-9.67;100.00;94946.47;5011118;28;20199;-66
2023/12/04 05:39:53;;;;;;;1999.90;999.90;;;;;;;-9.69;100.00;94937.25;5011144;28;20279;-67
2023/12/04 05:42:18;;;;;;;1999.90;999.90;;;;;;;-9.70;100.00;94933.06;5010558;28;20465;-67
2023/12/04 05:44:43;;;;;;;1999.90;999.90;;;;;;;-9.71;100.00;94934.91;5010523;28;20419;-67
2023/12/04 05:47:09;;;;;;;1999.90;999.90;;;;;;;-9.72;100.00;94943.13;5010688;28;20199;-65
2023/12/04 05:49:34;;;;;;;1999.90;999.90;;;;;;;-9.71;100.00;94944.66;5010730;28;20206;-65
2023/12/04 05:52:00;;;;;;;1999.90;999.90;;;;;;;-9.65;100.00;94943.53;5010774;28;20195;-66
2023/12/04 05:54:25;;;;;;;1999.90;999.90;;;;;;;-9.62;100.00;94942.97;5010872;28;20223;-66
2023/12/04 05:56:51;;;;;;;1999.90;999.90;;;;;;;-9.55;100.00;94938.84;5010314;28;20250;-67
2023/12/04 05:59:16;;;;;;;1999.90;999.90;;;;;;;-9.47;100.00;94930.28;5010865;28;20262;-66
2023/12/04 06:01:41;;;;;;;1999.90;999.90;;;;;;;-9.38;100.00;94938.31;5010658;28;20241;-67
2023/12/04 06:04:07;;;;;;;1999.90;999.90;;;;;;;-9.38;100.00;94930.41;5010297;28;20411;-67
2023/12/04 06:06:32;;;;;;;1999.90;999.90;;;;;;;-9.37;100.00;94934.63;5010201;28;20215;-66
2023/12/04 06:08:57;;;;;;;1999.90;999.90;;;;;;;-9.37;100.00;94937.25;5010706;28;20407;-67
2023/12/04 06:11:23;;;;;;;1999.90;999.90;;;;;;;-9.34;100.00;94918.16;5010184;28;20199;-67
2023/12/04 06:13:48;;;;;;;1999.90;999.90;;;;;;;-9.34;100.00;94913.69;5009948;28;20266;-66
2023/12/04 06:16:13;;;;;;;1999.90;999.90;;;;;;;-9.32;100.00;94916.03;5010669;28;20219;-65
2023/12/04 06:18:39;;;;;;;1999.90;999.90;;;;;;;-9.30;100.00;94913.88;5009922;28;20190;-64
2023/12/04 06:21:04;;;;;;;1999.90;999.90;;;;;;;-9.28;100.00;94914.38;5009885;28;20199;-69
2023/12/04 06:23:30;;;;;;;1999.90;999.90;;;;;;;-9.26;100.00;94910.38;5009885;28;20199;-64
2023/12/04 06:25:56;;;;;;;1999.90;999.90;;;;;;;-9.22;100.00;94910.59;5010564;28;20205;-64
2023/12/04 06:28:21;;;;;;;1999.90;999.90;;;;;;;-9.19;100.00;94915.25;5009649;28;20175;-62
2023/12/04 06:30:47;;;;;;;1999.90;999.90;;;;;;;-9.17;100.00;94910.47;5026415;28;20214;-62
2023/12/04 06:33:14;;;;;;;1999.90;999.90;;;;;;;-9.13;100.00;94911.47;5009153;28;20197;-65
2023/12/04 06:35:40;;;;;;;1999.90;999.90;;;;;;;-9.09;100.00;94902.66;5009414;28;20203;-62
2023/12/04 06:38:07;;;;;;;1999.90;999.90;;;;;;;-9.04;100.00;94915.00;5009498;28;20229;-62
2023/12/04 06:40:33;;;;;;;1999.90;999.90;;;;;;;-8.99;100.00;94909.63;5009837;28;20199;-62
2023/12/04 06:42:59;;;;;;;1999.90;999.90;;;;;;;-8.93;100.00;94898.66;5009304;28;20239;-64
2023/12/04 06:45:25;;;;;;;1999.90;999.90;;;;;;;-8.93;100.00;94889.94;5009369;28;20261;-61
2023/12/04 06:47:50;;;;;;;1999.90;999.90;;;;;;;-8.93;100.00;94874.09;5009748;28;20199;-60
2023/12/04 06:50:16;;;;;;;1999.90;999.90;;;;;;;-8.94;100.00;94888.38;5009452;28;20203;-60
2023/12/04 06:52:42;;;;;;;1999.90;999.90;;;;;;;-8.86;100.00;94895.63;5009518;28;20425;-59
2023/12/04 06:55:08;;;;;;;1999.90;999.90;;;;;;;-8.67;100.00;94898.94;5009167;28;20238;-61
2023/12/04 06:57:33;;;;;;;1999.90;999.90;;;;;;;-8.49;100.00;94900.69;5009747;28;20187;-67
2023/12/04 06:59:59;;;;;;;1999.90;999.90;;;;;;;-8.52;100.00;94899.41;5009733;28;20203;-60
2023/12/04 07:02:24;;;;;;;1999.90;999.90;;;;;;;-8.51;100.00;94905.47;5009617;28;20223;-60
2023/12/04 07:04:50;;;;;;;1999.90;999.90;;;;;;;-8.53;100.00;94907.66;5009348;28;20203;-61
2023/12/04 07:07:15;;;;;;;1999.90;999.90;;;;;;;-8.48;100.00;94904.91;5009434;28;20195;-60
2023/12/04 07:09:41;;;;;;;1999.90;999.90;;;;;;;-8.41;100.00;94906.03;5008964;28;20207;-60
2023/12/04 07:12:06;;;;;;;1999.90;999.90;;;;;;;-8.31;100.00;94905.84;5009400;28;20215;-60
2023/12/04 07:14:32;;;;;;;1999.90;999.90;;;;;;;-8.27;100.00;94898.88;5009042;28;20267;-59
2023/12/04 07:16:57;;;;;;;1999.90;999.90;;;;;;;-8.24;100.00;94905.41;5008882;28;20325;-61
2023/12/04 07:19:23;;;;;;;1999.90;999.90;;;;;;;-8.19;100.00;94913.25;5009024;28;20202;-60
2023/12/04 07:21:49;;;;;;;1999.90;999.90;;;;;;;-8.20;100.00;94901.84;5008780;28;20274;-60
2023/12/04 07:24:15;;;;;;;1999.90;999.90;;;;;;;-8.12;100.00;94903.03;5008924;28;20568;-61
2023/12/04 07:26:41;;;;;;;1999.90;999.90;;;;;;;-7.96;100.00;94896.31;5008729;28;20202;-60
2023/12/04 07:29:07;;;;;;;1999.90;999.90;;;;;;;-7.94;100.00;94902.84;5008533;28;20211;-60
2023/12/04 07:31:32;;;;;;;1999.90;999.90;;;;;;;-7.81;100.00;94898.59;5008650;28;20200;-60
2023/12/04 07:34:00;;;;;;;1999.90;999.90;;;;;;;-7.65;100.00;94897.16;5008731;28;20209;-59
2023/12/04 07:36:25;;;;;;;1999.90;999.90;;;;;;;-7.57;100.00;94904.38;5008824;28;20203;-61
2023/12/04 07:38:53;;;;;;;1999.90;999.90;;;;;;;-7.50;100.00;94910.06;5008426;28;20221;-60
2023/12/04 07:41:19;;;;;;;1999.90;999.90;;;;;;;-7.40;100.00;94899.19;5008344;28;20202;-61
2023/12/04 07:43:44;;;;;;;1999.90;999.90;;;;;;;-7.45;100.00;94904.63;5008352;28;20260;-61
2023/12/04 07:46:11;;;;;;;1999.90;999.90;;;;;;;-7.38;100.00;94903.13;5008103;28;20195;-61
2023/12/04 07:48:36;;;;;;;1999.90;999.90;;;;;;;-7.36;100.00;94905.47;5008345;28;20191;-61
2023/12/04 07:51:02;;;;;;;1999.90;999.90;;;;;;;-7.28;100.00;94912.69;5008348;28;20195;-61
2023/12/04 07:53:27;;;;;;;1999.90;999.90;;;;;;;-7.21;100.00;94926.28;5008371;28;20401;-61
2023/12/04 07:55:53;;;;;;;1999.90;999.90;;;;;;;-7.24;100.00;94922.34;5008088;28;20191;-60
2023/12/04 07:58:18;;;;;;;1999.90;999.90;;;;;;;-7.27;100.00;94930.16;5007819;28;20218;-62
2023/12/04 08:00:44;;;;;;;1999.90;999.90;;;;;;;-7.35;100.00;94934.28;5007932;28;20230;-61
2023/12/04 08:03:10;;;;;;;1999.90;999.90;;;;;;;-7.35;100.00;94944.13;5008460;28;20215;-61
2023/12/04 08:05:36;;;;;;;1999.90;999.90;;;;;;;-7.16;100.00;94957.97;5008225;28;20212;-61
2023/12/04 08:08:01;;;;;;;1999.90;999.90;;;;;;;-7.07;100.00;94958.78;5007779;28;20198;-61
2023/12/04 08:10:27;;;;;;;1999.90;999.90;;;;;;;-6.88;100.00;94962.03;5007587;28;20195;-61
2023/12/04 08:12:52;;;;;;;1999.90;999.90;;;;;;;-6.65;100.00;94968.84;5007679;28;20197;-61
2023/12/04 08:15:17;;;;;;;1999.90;999.90;;;;;;;-6.49;100.00;94962.03;5007874;28;20194;-61
2023/12/04 08:17:42;;;;;;;1999.90;999.90;;;;;;;-6.28;100.00;94957.75;5007908;28;20268;-62
2023/12/04 08:20:13;;;;;;;1999.90;999.90;;;;;;;-6.18;100.00;94960.13;5008065;28;20213;-61
2023/12/04 08:22:41;;;;;;;1999.90;999.90;;;;;;;-5.98;100.00;94956.88;5007447;28;20318;-61
2023/12/04 08:25:07;;;;;;;1999.90;999.90;;;;;;;-5.84;100.00;94957.53;5007313;28;20203;-61
2023/12/04 08:27:33;;;;;;;1999.90;999.90;;;;;;;-5.86;100.00;94941.13;5008306;28;20223;-61
2023/12/04 08:29:58;;;;;;;1999.90;999.90;;;;;;;-5.70;100.00;94952.81;5008265;28;20218;-61
2023/12/04 08:32:26;;;;;;;1999.90;999.90;;;;;;;-5.55;100.00;94933.75;5008146;28;20202;-62
2023/12/04 08:34:51;;;;;;;1999.90;999.90;;;;;;;-5.50;100.00;94936.22;5007616;28;20222;-62
2023/12/04 08:37:18;;;;;;;1999.90;999.90;;;;;;;-5.41;100.00;94934.34;5007641;28;20207;-61
2023/12/04 08:39:43;;;;;;;1999.90;999.90;;;;;;;-5.42;100.00;94943.44;5007884;28;20195;-62
2023/12/04 08:42:09;;;;;;;1999.90;999.90;;;;;;;-5.54;100.00;94964.53;5006892;28;20280;-62
2023/12/04 08:44:35;;;;;;;1999.90;999.90;;;;;;;-5.55;100.00;94970.16;5007716;28;20215;-61
2023/12/04 08:47:00;;;;;;;1999.90;999.90;;;;;;;-5.61;100.00;94971.44;5007181;28;20187;-62
2023/12/04 08:49:26;;;;;;;1999.90;999.90;;;;;;;-5.51;100.00;94961.25;5007561;28;20206;-61
2023/12/04 08:51:55;;;;;;;1999.90;999.90;;;;;;;-5.48;100.00;94960.63;5007658;28;20209;-61
2023/12/04 08:54:21;;;;;;;1999.90;999.90;;;;;;;-5.43;100.00;94968.44;5007931;28;20199;-62
2023/12/04 08:56:46;;;;;;;1999.90;999.90;;;;;;;-5.51;100.00;94969.22;5007376;28;20209;-62
2023/12/04 08:59:12;;;;;;;1999.90;999.90;;;;;;;-5.61;100.00;94969.53;5007080;28;20184;-61
2023/12/04 09:01:38;;;;;;;1999.90;999.90;;;;;;;-5.53;100.00;94974.09;5007629;28;20206;-61
2023/12/04 09:04:03;;;;;;;1999.90;999.90;;;;;;;-5.35;100.00;94961.56;5007660;28;20194;-62
2023/12/04 09:06:29;;;;;;;1999.90;999.90;;;;;;;-5.17;100.00;94974.53;5007161;28;20206;-62
2023/12/04 09:08:54;;;;;;;1999.90;999.90;;;;;;;-5.03;100.00;94967.16;5007384;28;20195;-61
2023/12/04 09:11:19;;;;;;;1999.90;999.90;;;;;;;-5.03;100.00;94967.16;5007425;28;20204;-60
2023/12/04 09:13:45;;;;;;;1999.90;999.90;;;;;;;-4.71;100.00;94948.00;5007131;28;20187;-61
2023/12/04 09:16:10;;;;;;;1999.90;999.90;;;;;;;-4.45;100.00;94950.56;5007484;28;20195;-61
2023/12/04 09:18:36;;;;;;;1999.90;999.90;;;;;;;-4.25;100.00;94950.66;5007261;28;20269;-62
2023/12/04 09:21:01;;;;;;;1999.90;999.90;;;;;;;-3.98;100.00;94960.84;5007176;28;20191;-62
2023/12/04 09:23:26;;;;;;;1999.90;999.90;;;;;;;-4.01;100.00;94958.81;5007620;28;20226;-62
2023/12/04 09:25:52;;;;;;;1999.90;999.90;;;;;;;-3.93;100.00;94957.22;5007275;28;20210;-61
2023/12/04 09:28:17;;;;;;;1999.90;999.90;;;;;;;-3.90;100.00;94960.00;5007641;28;20191;-61
2023/12/04 09:30:43;;;;;;;1999.90;999.90;;;;;;;-3.66;100.00;94962.84;5007641;28;20248;-62
2023/12/04 09:33:08;;;;;;;1999.90;999.90;;;;;;;-3.65;100.00;94969.72;5007551;28;20203;-61
2023/12/04 09:35:34;;;;;;;1999.90;999.90;;;;;;;-3.74;100.00;94974.34;5007321;28;20266;-62
2023/12/04 09:37:59;;;;;;;1999.90;999.90;;;;;;;-3.66;100.00;94978.06;5007068;28;20218;-62
2023/12/04 09:40:25;;;;;;;1999.90;999.90;;;;;;;-3.63;100.00;94983.53;5006828;28;20258;-62
2023/12/04 09:42:51;;;;;;;1999.90;999.90;;;;;;;-3.33;100.00;94983.47;5007253;28;20211;-61
2023/12/04 09:45:18;;;;;;;1999.90;999.90;;;;;;;-3.30;100.00;94990.81;5006903;28;20187;-61
2023/12/04 09:47:44;;;;;;;1999.90;999.90;;;;;;;-3.26;100.00;94989.06;5007078;28;20195;-61
2023/12/04 09:50:10;;;;;;;1999.90;999.90;;;;;;;-3.24;100.00;94989.53;5007117;28;20200;-61
2023/12/04 09:52:35;;;;;;;1999.90;999.90;;;;;;;-3.15;100.00;94982.22;5007101;28;20191;-62
2023/12/04 09:55:01;;;;;;;1999.90;999.90;;;;;;;-3.16;100.00;94988.66;5009437;28;20229;-60
2023/12/04 09:57:27;;;;;;;1999.90;999.90;;;;;;;-3.31;100.00;94979.38;5011100;28;20214;-62
2023/12/04 09:59:52;;;;;;;1999.90;999.90;;;;;;;-3.41;100.00;94985.09;5010901;28;20206;-61
2023/12/04 10:02:19;;;;;;;1999.90;999.90;;;;;;;-3.46;100.00;94970.06;5010826;28;20210;-61
2023/12/04 10:04:46;;;;;;;1999.90;999.90;;;;;;;-3.54;100.00;94957.56;5010661;28;20187;-61
2023/12/04 10:07:15;;;;;;;1999.90;999.90;;;;;;;-3.45;100.00;94962.84;5010310;28;20210;-61
2023/12/04 10:09:41;;;;;;;1999.90;999.90;;;;;;;-3.43;100.00;94960.63;5026548;28;20199;-60
2023/12/04 10:12:07;;;;;;;1999.90;999.90;;;;;;;-3.41;100.00;94955.75;5010151;28;20206;-61
2023/12/04 10:14:32;;;;;;;1999.90;999.90;;;;;;;-3.38;100.00;94946.31;5010264;28;20245;-61
2023/12/04 10:16:57;;;;;;;1999.90;999.90;;;;;;;-3.16;100.00;94944.09;5010075;28;20203;-62
2023/12/04 10:19:26;;;;;;;1999.90;999.90;;;;;;;-3.07;100.00;94941.34;5010117;28;20187;-61
2023/12/04 10:21:52;;;;;;;1999.90;999.90;;;;;;;-2.88;100.00;94939.72;5010455;28;20214;-61
2023/12/04 10:24:27;;;;;;;1999.90;999.90;;;;;;;-2.67;100.00;94928.97;5010178;28;20192;-61
2023/12/04 10:26:53;;;;;;;1999.90;999.90;;;;;;;-2.25;100.00;94915.13;5009832;28;20179;-62
2023/12/04 10:29:18;;;;;;;1999.90;999.90;;;;;;;-1.97;100.00;94925.94;5010165;28;20412;-60
2023/12/04 10:31:44;;;;;;;1999.90;999.90;;;;;;;-2.26;100.00;94931.50;5010345;28;20196;-63
2023/12/04 10:34:12;;;;;;;1999.90;999.90;;;;;;;-2.14;100.00;94926.16;5010333;28;20266;-62
2023/12/04 10:36:38;;;;;;;1999.90;999.90;;;;;;;-2.20;100.00;94922.91;5009888;28;20199;-62
2023/12/04 10:39:06;;;;;;;1999.90;999.90;;;;;;;-2.29;100.00;94927.59;5009891;28;20222;-63
2023/12/04 10:41:32;;;;;;;1999.90;999.90;;;;;;;-2.27;100.00;94928.03;5009976;28;20403;-63